Rembert, South Carolina
Current Conditions -  °F | °C
As of 7:01 AM on Saturday 01 Nov 2014 (Local Time) from KSSC Reporting Station
Overcast Overcast  
Wind Chill: 35°   Ceiling: 3300
Heat Index: 43°   Visibility: 10mi
Dew Point: 41°   Wind: 18mph
Humidity: 93%   Direction: 270°W
Pressure: 29.66"   Gusts: 25mph
Location:  34.1°N, 80.53°W
Report Text: KSSC 011101Z AUTO 27016G22KT 10SM FEW010 SCT021 OVC033 06/05 A2966 RMK AO2 DZE1101 $
Loading
Personal Weather Stations






























Interactive Weather Map New forecast layout! Learn more

10-Day Weather Forecast

Advertisements
Track Severe Weather on mobile